Time;durP1;ratioP1;P1;durP2;ratioP2;P2;SDS_P1;SDS_P2;PMS_P1;PMS_P2;Temp;Humidity;BMP_temperature;BMP_pressure;BME280_temperature;BME280_humidity;BME280_pressure;Samples;Min_cycle;Max_cycle;Signal;HPM_P1;HPM_P2
2022/06/04 00:01:57;;;;;;;9.35;5.82;;;11.20;99.90;;;;;;4971103;28;20490;-84
2022/06/04 00:04:24;;;;;;;10.20;6.07;;;11.20;99.90;;;;;;4986396;28;20399;-85
2022/06/04 00:06:52;;;;;;;9.35;5.80;;;11.20;99.90;;;;;;4971696;28;20912;-83
2022/06/04 00:09:22;;;;;;;8.07;5.60;;;11.10;99.90;;;;;;4970276;28;20482;-84
2022/06/04 00:17:23;;;;;;;9.40;6.40;;;11.00;99.90;;;;;;4953163;28;20400;-83
2022/06/04 00:19:51;;;;;;;11.15;6.75;;;11.00;99.90;;;;;;4970149;28;20402;-85
2022/06/04 00:22:19;;;;;;;11.57;6.80;;;11.10;99.90;;;;;;4986481;28;20501;-84
2022/06/04 00:24:47;;;;;;;13.95;7.07;;;11.00;99.90;;;;;;4971453;28;20391;-84
2022/06/04 00:27:19;;;;;;;10.32;6.72;;;11.00;99.90;;;;;;4985604;28;20391;-83
2022/06/04 00:29:47;;;;;;;10.15;5.75;;;10.90;99.90;;;;;;4970265;28;20877;-83
2022/06/04 00:32:16;;;;;;;10.80;6.43;;;10.80;99.90;;;;;;4971482;28;20892;-84
2022/06/04 00:34:44;;;;;;;11.53;6.70;;;10.80;99.90;;;;;;4971336;28;20407;-84
2022/06/04 00:37:12;;;;;;;13.05;7.43;;;10.70;99.90;;;;;;4971158;28;20395;-83
2022/06/04 00:39:40;;;;;;;10.45;8.55;;;10.70;99.90;;;;;;4971021;28;20403;-85
2022/06/04 00:42:14;;;;;;;14.20;10.07;;;10.70;99.90;;;;;;4970828;28;20422;-83
2022/06/04 00:45:19;;;;;;;13.50;10.05;;;10.70;99.90;;;;;;4970049;28;20411;-85
2022/06/04 00:47:50;;;;;;;14.38;11.40;;;10.60;99.90;;;;;;4971145;28;20796;-83
2022/06/04 00:50:21;;;;;;;13.90;11.07;;;10.60;99.90;;;;;;4985166;28;20436;-84
2022/06/04 00:52:51;;;;;;;13.27;10.80;;;10.50;99.90;;;;;;4970618;28;20489;-84
2022/06/04 00:55:20;;;;;;;17.40;14.98;;;10.50;99.90;;;;;;4953594;28;20396;-83
2022/06/04 00:58:13;;;;;;;15.45;12.50;;;10.50;99.90;;;;;;4966042;28;20405;-84
2022/06/04 01:00:56;;;;;;;17.75;14.55;;;10.50;99.90;;;;;;4969241;28;20895;-84
2022/06/04 01:03:55;;;;;;;21.20;18.90;;;10.50;99.90;;;;;;4965272;28;20761;-83
2022/06/04 01:06:39;;;;;;;22.33;18.70;;;10.40;99.90;;;;;;4970959;28;20956;-83
2022/06/04 01:09:28;;;;;;;22.23;19.10;;;10.40;99.90;;;;;;4967137;28;20391;-83
2022/06/04 01:12:10;;;;;;;22.10;18.50;;;10.40;99.90;;;;;;4985100;28;20427;-84
2022/06/04 01:14:56;;;;;;;17.40;14.38;;;10.50;99.90;;;;;;4970768;28;20399;-84
2022/06/04 01:17:33;;;;;;;16.33;13.38;;;10.50;99.90;;;;;;4970740;28;20399;-85
2022/06/04 01:20:12;;;;;;;18.40;16.33;;;10.50;99.90;;;;;;4969423;28;20908;-84
2022/06/04 01:23:13;;;;;;;20.35;16.27;;;10.50;99.90;;;;;;4969288;28;20422;-84
2022/06/04 01:25:47;;;;;;;19.05;15.93;;;10.40;99.90;;;;;;4969893;28;20409;-83
2022/06/04 01:28:16;;;;;;;17.65;14.07;;;10.40;99.90;;;;;;4981600;28;20431;-82
2022/06/04 01:30:47;;;;;;;17.50;13.07;;;10.40;99.90;;;;;;4969563;28;20397;-84
2022/06/04 01:33:35;;;;;;;16.88;12.15;;;10.40;99.90;;;;;;5029175;28;20840;-84
2022/06/04 01:36:19;;;;;;;18.45;12.35;;;10.50;99.90;;;;;;4970626;28;20540;-83
2022/06/04 01:38:53;;;;;;;17.50;12.05;;;10.50;99.90;;;;;;4969170;28;20494;-82
2022/06/04 01:41:30;;;;;;;17.30;14.00;;;10.50;99.90;;;;;;4981107;28;20445;-84
2022/06/04 01:44:06;;;;;;;19.83;14.80;;;10.50;99.90;;;;;;5062087;28;20410;-84
2022/06/04 01:46:57;;;;;;;17.65;14.57;;;10.40;99.90;;;;;;4968796;28;20391;-84
2022/06/04 01:49:28;;;;;;;18.25;12.63;;;10.30;99.90;;;;;;4949579;28;20439;-82
2022/06/04 01:52:01;;;;;;;17.10;13.02;;;10.30;99.90;;;;;;4963966;28;20422;-84
2022/06/04 01:54:36;;;;;;;15.75;12.23;;;10.40;99.90;;;;;;4955038;28;20491;-84
2022/06/04 01:57:23;;;;;;;14.88;11.20;;;10.40;99.90;;;;;;4969412;28;20484;-84
2022/06/04 01:59:57;;;;;;;13.00;9.98;;;10.40;99.90;;;;;;4970291;28;20401;-83
2022/06/04 02:02:36;;;;;;;11.73;9.97;;;10.40;99.90;;;;;;4969087;28;20793;-84
2022/06/04 02:05:08;;;;;;;15.88;11.40;;;10.40;99.90;;;;;;4985291;28;20391;-85
2022/06/04 02:07:41;;;;;;;12.90;10.38;;;10.40;99.90;;;;;;4952857;28;20393;-83
2022/06/04 02:10:13;;;;;;;15.93;11.55;;;10.40;99.90;;;;;;4963534;28;20410;-83
2022/06/04 02:12:43;;;;;;;16.25;11.90;;;10.40;99.90;;;;;;4983940;28;20417;-82
2022/06/04 02:15:15;;;;;;;13.70;10.90;;;10.40;99.90;;;;;;4970129;28;20403;-84
2022/06/04 02:17:46;;;;;;;14.53;11.53;;;10.40;99.90;;;;;;4969399;28;20394;-84
2022/06/04 02:20:14;;;;;;;14.50;11.23;;;10.40;99.90;;;;;;4968513;28;20478;-84
2022/06/04 02:22:42;;;;;;;14.10;10.55;;;10.40;99.90;;;;;;4966587;28;20467;-84
2022/06/04 02:25:12;;;;;;;14.55;9.98;;;10.40;99.90;;;;;;4969490;28;20402;-85
2022/06/04 02:27:41;;;;;;;15.27;11.30;;;10.40;99.90;;;;;;4969585;28;20407;-84
2022/06/04 02:30:10;;;;;;;14.20;10.02;;;10.40;99.90;;;;;;4968138;28;20393;-83
2022/06/04 02:32:37;;;;;;;15.83;11.20;;;10.40;99.90;;;;;;4968498;28;20398;-84
2022/06/04 02:35:13;;;;;;;12.38;10.65;;;10.40;99.90;;;;;;4967189;28;20437;-83
2022/06/04 02:38:04;;;;;;;15.85;11.43;;;10.40;99.90;;;;;;4969255;28;20394;-83
2022/06/04 02:40:51;;;;;;;15.05;11.38;;;10.40;99.90;;;;;;4961764;28;20406;-84
2022/06/04 02:43:32;;;;;;;12.57;10.07;;;10.40;99.90;;;;;;4969110;28;20413;-84
2022/06/04 02:46:19;;;;;;;12.93;10.25;;;10.40;99.90;;;;;;4951974;28;20403;-84
2022/06/04 02:49:03;;;;;;;13.38;10.15;;;10.40;99.90;;;;;;4966854;28;20445;-84
2022/06/04 02:51:38;;;;;;;13.85;9.60;;;10.40;99.90;;;;;;4965011;28;20505;-82
2022/06/04 02:54:16;;;;;;;14.23;9.57;;;10.40;99.90;;;;;;4967411;28;20792;-82
2022/06/04 02:56:45;;;;;;;14.52;9.50;;;10.50;99.90;;;;;;4973078;28;20410;-83
2022/06/04 02:59:16;;;;;;;11.45;8.93;;;10.40;99.90;;;;;;4967372;28;20762;-84
2022/06/04 03:01:46;;;;;;;14.03;8.93;;;10.40;99.90;;;;;;4980911;28;20416;-83
2022/06/04 03:04:14;;;;;;;12.70;9.85;;;10.40;99.90;;;;;;4967916;28;20406;-83
2022/06/04 03:06:41;;;;;;;11.50;8.55;;;10.40;99.90;;;;;;4942309;28;20399;-83
2022/06/04 03:09:12;;;;;;;13.33;8.83;;;10.40;99.90;;;;;;4964283;28;20783;-83
2022/06/04 03:11:45;;;;;;;10.25;8.35;;;10.50;99.90;;;;;;4969145;28;20986;-84
2022/06/04 03:14:16;;;;;;;13.20;8.60;;;10.50;99.90;;;;;;4955903;28;20401;-85
2022/06/04 03:16:46;;;;;;;11.73;8.73;;;10.50;99.90;;;;;;4966235;28;20757;-84
2022/06/04 03:19:14;;;;;;;15.10;8.50;;;10.50;99.90;;;;;;4952211;28;20490;-85
2022/06/04 03:21:42;;;;;;;13.00;8.18;;;10.50;99.90;;;;;;4969329;28;20402;-85
2022/06/04 03:24:12;;;;;;;11.57;8.13;;;10.50;99.90;;;;;;4971439;28;20403;-84
2022/06/04 03:26:40;;;;;;;13.18;8.40;;;10.60;99.90;;;;;;4972300;28;20402;-84
2022/06/04 03:29:08;;;;;;;12.60;8.10;;;10.60;99.90;;;;;;4972326;28;20395;-83
2022/06/04 03:31:35;;;;;;;10.30;7.47;;;10.60;99.90;;;;;;4972455;28;20394;-84
2022/06/04 03:34:05;;;;;;;13.15;8.57;;;10.60;99.90;;;;;;4972358;28;20401;-83
2022/06/04 03:36:34;;;;;;;12.23;7.93;;;10.60;99.90;;;;;;4972732;28;20399;-82
2022/06/04 03:39:02;;;;;;;12.20;7.20;;;10.60;99.90;;;;;;4956908;28;20387;-83
2022/06/04 03:41:38;;;;;;;11.38;7.45;;;10.60;99.90;;;;;;4970838;28;20905;-84
2022/06/04 03:44:05;;;;;;;9.82;7.03;;;10.60;99.90;;;;;;4971131;28;20414;-85
2022/06/04 03:46:34;;;;;;;10.65;7.38;;;10.60;99.90;;;;;;4970708;28;20403;-83
2022/06/04 03:49:01;;;;;;;11.07;7.50;;;10.70;99.90;;;;;;5055132;28;20444;-84
2022/06/04 03:51:29;;;;;;;12.18;7.05;;;10.60;99.90;;;;;;4972277;28;20391;-84
2022/06/04 03:53:57;;;;;;;9.93;6.38;;;10.70;99.90;;;;;;4972321;28;20410;-83
2022/06/04 03:56:25;;;;;;;10.48;6.95;;;10.60;99.90;;;;;;4972274;28;20397;-84
2022/06/04 03:58:53;;;;;;;11.13;7.23;;;10.50;99.90;;;;;;5038450;28;20395;-84
2022/06/04 04:01:28;;;;;;;11.13;6.72;;;10.60;99.90;;;;;;4971924;28;20397;-83
2022/06/04 04:03:58;;;;;;;10.65;6.93;;;10.60;99.90;;;;;;4970892;28;20398;-85
2022/06/04 04:06:28;;;;;;;9.90;6.63;;;10.70;99.90;;;;;;4971919;28;20402;-84
2022/06/04 04:08:56;;;;;;;11.27;7.00;;;10.80;99.90;;;;;;4968905;28;20844;-85
2022/06/04 04:11:27;;;;;;;10.65;7.07;;;10.80;99.90;;;;;;4958284;28;20399;-84
2022/06/04 04:13:55;;;;;;;8.93;6.72;;;10.80;99.90;;;;;;4970641;28;20402;-83
2022/06/04 04:16:23;;;;;;;12.73;7.10;;;10.70;99.90;;;;;;4970540;28;20456;-84
2022/06/04 04:18:52;;;;;;;12.02;7.53;;;10.80;99.90;;;;;;4971625;28;20448;-84
2022/06/04 04:21:22;;;;;;;12.65;8.52;;;10.80;99.90;;;;;;4971747;28;20762;-83
2022/06/04 04:23:50;;;;;;;9.68;6.88;;;10.80;99.90;;;;;;4970590;28;20497;-84
2022/06/04 04:26:18;;;;;;;14.57;7.80;;;10.80;99.90;;;;;;4971414;28;20474;-84
2022/06/04 04:28:45;;;;;;;8.65;5.60;;;10.90;99.90;;;;;;4971312;28;20413;-84
2022/06/04 04:31:17;;;;;;;9.15;5.90;;;10.90;99.90;;;;;;4971493;28;20745;-83
2022/06/04 04:33:45;;;;;;;7.93;5.20;;;10.90;99.90;;;;;;4971225;28;20417;-84
2022/06/04 04:36:13;;;;;;;7.85;4.78;;;10.90;99.90;;;;;;4971223;28;20398;-83
2022/06/04 04:38:41;;;;;;;7.93;4.50;;;11.00;99.90;;;;;;4967630;28;20504;-82
2022/06/04 04:41:13;;;;;;;8.13;4.72;;;10.90;99.90;;;;;;4971116;28;20479;-84
2022/06/04 04:43:41;;;;;;;8.57;4.97;;;11.00;99.90;;;;;;4964252;28;20416;-84
2022/06/04 04:46:12;;;;;;;7.47;4.78;;;11.00;99.90;;;;;;4986513;28;20472;-83
2022/06/04 04:48:40;;;;;;;9.80;5.72;;;11.00;99.90;;;;;;4986105;28;20402;-83
2022/06/04 04:51:14;;;;;;;10.10;5.40;;;11.00;99.90;;;;;;4986113;28;20478;-84
2022/06/04 04:53:43;;;;;;;11.88;6.20;;;11.00;99.90;;;;;;4971363;28;20409;-84
2022/06/04 04:56:19;;;;;;;10.55;6.20;;;11.00;99.90;;;;;;4985336;28;20833;-83
2022/06/04 04:58:47;;;;;;;9.95;5.80;;;10.90;99.90;;;;;;4971084;28;20478;-84
2022/06/04 05:01:20;;;;;;;10.00;5.88;;;11.00;99.90;;;;;;4985860;28;20427;-84
2022/06/04 05:03:49;;;;;;;12.52;6.53;;;11.10;99.90;;;;;;4964403;28;20413;-83
2022/06/04 05:06:18;;;;;;;10.40;6.17;;;11.10;99.90;;;;;;4945509;28;20393;-83
2022/06/04 05:08:48;;;;;;;9.60;6.03;;;11.20;99.90;;;;;;4968340;28;20541;-83
2022/06/04 05:11:18;;;;;;;10.70;6.43;;;11.30;99.90;;;;;;4970996;28;20398;-84
2022/06/04 05:13:49;;;;;;;10.23;6.00;;;11.30;99.90;;;;;;4969808;28;20394;-83
2022/06/04 05:16:19;;;;;;;9.88;5.30;;;11.40;99.90;;;;;;4970890;28;20876;-84
2022/06/04 05:18:47;;;;;;;8.70;4.97;;;11.30;99.90;;;;;;4969883;28;20442;-84
2022/06/04 05:21:22;;;;;;;10.02;5.57;;;11.30;99.90;;;;;;4970684;28;20482;-83
2022/06/04 05:23:53;;;;;;;10.77;5.70;;;11.30;99.90;;;;;;4969342;28;20419;-84
2022/06/04 05:26:23;;;;;;;11.75;5.60;;;11.30;99.90;;;;;;4970772;28;20386;-83
2022/06/04 05:28:51;;;;;;;9.85;5.50;;;11.30;99.90;;;;;;4969248;28;20773;-83
2022/06/04 05:31:20;;;;;;;10.50;5.75;;;11.30;99.90;;;;;;4985571;28;20390;-84
2022/06/04 05:33:47;;;;;;;11.13;5.70;;;11.30;99.90;;;;;;4970506;28;20391;-85
2022/06/04 05:36:15;;;;;;;8.93;5.20;;;11.30;99.90;;;;;;4970849;28;20391;-85
2022/06/04 05:38:43;;;;;;;9.48;5.35;;;11.30;99.90;;;;;;4985273;28;20412;-84
2022/06/04 05:41:15;;;;;;;8.35;5.30;;;11.40;99.90;;;;;;4970413;28;20584;-83
2022/06/04 05:43:43;;;;;;;10.97;5.70;;;11.40;99.90;;;;;;4985389;28;20403;-84
2022/06/04 05:46:14;;;;;;;9.77;5.35;;;11.40;99.90;;;;;;4984243;28;20402;-83
2022/06/04 05:48:44;;;;;;;10.27;5.45;;;11.50;99.90;;;;;;4984977;28;20877;-83
2022/06/04 05:51:15;;;;;;;9.60;5.30;;;11.50;99.90;;;;;;4970237;28;20510;-84
2022/06/04 05:53:42;;;;;;;8.27;5.35;;;11.50;99.90;;;;;;4985291;28;20746;-82
2022/06/04 05:56:21;;;;;;;9.23;5.07;;;11.50;99.90;;;;;;4985141;28;20893;-84
2022/06/04 05:58:51;;;;;;;9.90;5.53;;;11.50;99.90;;;;;;4968921;28;20386;-83
2022/06/04 06:01:21;;;;;;;10.10;4.90;;;11.50;99.90;;;;;;4962931;28;20479;-84
2022/06/04 06:03:50;;;;;;;7.50;4.50;;;11.60;99.90;;;;;;4960996;28;20424;-83
2022/06/04 06:06:21;;;;;;;8.10;4.55;;;11.60;99.90;;;;;;4970050;28;20395;-83
2022/06/04 06:09:01;;;;;;;8.98;4.57;;;11.60;99.90;;;;;;4968923;28;20474;-84
2022/06/04 06:11:29;;;;;;;6.90;4.70;;;11.70;99.90;;;;;;4969942;28;20395;-84
2022/06/04 06:13:57;;;;;;;8.27;4.82;;;11.70;99.90;;;;;;4975152;28;20430;-83
2022/06/04 06:16:36;;;;;;;7.25;5.00;;;11.80;99.90;;;;;;4969992;28;20406;-84
2022/06/04 06:19:07;;;;;;;10.52;5.80;;;11.80;99.90;;;;;;4968899;28;20419;-84
2022/06/04 06:21:35;;;;;;;8.45;4.97;;;11.90;99.90;;;;;;4969795;28;20494;-84
2022/06/04 06:24:05;;;;;;;12.68;5.60;;;11.80;99.90;;;;;;4968697;28;20414;-85
2022/06/04 06:26:35;;;;;;;7.85;4.88;;;11.90;99.90;;;;;;4969591;28;20395;-83
2022/06/04 06:29:04;;;;;;;7.57;4.47;;;12.00;99.90;;;;;;4969777;28;20429;-83
2022/06/04 06:31:34;;;;;;;7.55;4.78;;;12.10;99.90;;;;;;4969778;28;20391;-84
2022/06/04 06:34:02;;;;;;;8.23;5.18;;;12.10;99.90;;;;;;4965384;28;20411;-85
2022/06/04 06:36:29;;;;;;;8.25;4.82;;;12.30;99.90;;;;;;4964303;28;20503;-83
2022/06/04 06:38:57;;;;;;;10.25;5.60;;;12.30;99.90;;;;;;4969760;28;20426;-85
2022/06/04 06:41:26;;;;;;;6.90;5.30;;;12.40;99.90;;;;;;4965767;28;20433;-84
2022/06/04 06:43:54;;;;;;;9.50;5.43;;;12.40;99.90;;;;;;4978852;28;20903;-85
2022/06/04 06:46:28;;;;;;;8.55;5.28;;;12.50;99.90;;;;;;4981349;28;20946;-85
2022/06/04 06:49:01;;;;;;;8.25;5.38;;;12.50;99.90;;;;;;4969462;28;20462;-83
2022/06/04 06:51:33;;;;;;;8.17;5.87;;;12.40;99.90;;;;;;4968450;28;20395;-84
2022/06/04 06:54:01;;;;;;;9.45;5.65;;;12.40;99.90;;;;;;4956845;28;20396;-84
2022/06/04 06:56:32;;;;;;;9.73;5.82;;;12.40;99.90;;;;;;4964786;28;20912;-84
2022/06/04 06:59:02;;;;;;;10.13;5.90;;;12.50;99.90;;;;;;4956963;28;20761;-84
2022/06/04 07:01:31;;;;;;;8.80;5.72;;;12.50;99.90;;;;;;4972890;28;20397;-85
2022/06/04 07:04:01;;;;;;;8.70;6.10;;;12.60;99.90;;;;;;4972781;28;20894;-82
2022/06/04 07:06:32;;;;;;;9.50;5.80;;;12.60;99.90;;;;;;4956526;28;20484;-85
2022/06/04 07:09:02;;;;;;;8.80;5.78;;;12.60;99.90;;;;;;4957130;28;20418;-84
2022/06/04 07:11:29;;;;;;;11.23;6.47;;;12.70;99.90;;;;;;4972742;28;20430;-84
2022/06/04 07:13:58;;;;;;;8.17;5.83;;;12.70;99.90;;;;;;4987312;28;20494;-84
2022/06/04 07:16:25;;;;;;;7.85;5.40;;;12.80;99.90;;;;;;4999730;28;20460;-84
2022/06/04 07:18:53;;;;;;;8.80;5.60;;;12.90;99.90;;;;;;4986742;28;20844;-81
2022/06/04 07:21:21;;;;;;;8.83;5.70;;;12.80;99.90;;;;;;4971363;28;20394;-83
2022/06/04 07:23:48;;;;;;;9.02;5.80;;;12.70;99.90;;;;;;4972541;28;20461;-82
2022/06/04 07:26:16;;;;;;;8.75;5.50;;;12.80;99.90;;;;;;4971481;28;20395;-83
2022/06/04 07:28:43;;;;;;;7.40;5.75;;;12.90;99.90;;;;;;4971028;28;20435;-84
2022/06/04 07:31:13;;;;;;;10.40;5.70;;;13.00;99.90;;;;;;4969474;28;20894;-83
2022/06/04 07:33:45;;;;;;;10.97;6.10;;;13.00;99.90;;;;;;4972216;28;20472;-81
2022/06/04 07:36:16;;;;;;;7.78;5.53;;;13.00;99.90;;;;;;4971126;28;20422;-83
2022/06/04 07:38:45;;;;;;;8.48;5.97;;;13.10;99.90;;;;;;4972140;28;20765;-83
2022/06/04 07:41:23;;;;;;;7.72;5.65;;;13.20;99.90;;;;;;4972116;28;20406;-83
2022/06/04 07:43:51;;;;;;;9.20;5.93;;;13.20;99.90;;;;;;4972183;28;20437;-84
2022/06/04 07:46:20;;;;;;;7.10;5.50;;;13.30;99.90;;;;;;4972076;28;20398;-83
2022/06/04 07:48:48;;;;;;;8.25;5.57;;;13.50;99.90;;;;;;4971841;28;20416;-84
2022/06/04 07:51:17;;;;;;;7.93;5.30;;;13.50;99.90;;;;;;4972321;28;20394;-84
2022/06/04 07:53:44;;;;;;;7.03;5.50;;;13.40;99.90;;;;;;4972061;28;20441;-83
2022/06/04 07:56:15;;;;;;;6.83;5.40;;;13.40;99.90;;;;;;4967737;28;20390;-84
2022/06/04 07:58:43;;;;;;;9.85;5.28;;;13.50;99.90;;;;;;4971914;28;20397;-82
2022/06/04 08:01:16;;;;;;;9.85;5.00;;;13.50;99.90;;;;;;4972097;28;20399;-83
2022/06/04 08:03:45;;;;;;;10.02;4.93;;;13.50;99.90;;;;;;4986744;28;20441;-85
2022/06/04 08:06:15;;;;;;;7.68;4.85;;;13.70;99.90;;;;;;4986877;28;20896;-82
2022/06/04 08:08:48;;;;;;;7.28;5.18;;;13.70;99.90;;;;;;4985187;28;20830;-83
2022/06/04 08:11:32;;;;;;;7.97;4.90;;;13.80;99.90;;;;;;4971108;28;20387;-84
2022/06/04 08:14:23;;;;;;;7.40;5.07;;;13.80;99.90;;;;;;4980937;28;20485;-84
2022/06/04 08:16:58;;;;;;;9.82;5.82;;;13.80;99.90;;;;;;4970632;28;20535;-84
2022/06/04 08:19:29;;;;;;;6.82;5.20;;;13.80;99.90;;;;;;4970628;28;20403;-84
2022/06/04 08:21:58;;;;;;;10.03;6.13;;;13.90;99.90;;;;;;4970880;28;20395;-84
2022/06/04 08:24:26;;;;;;;8.85;5.53;;;14.10;99.90;;;;;;4970614;28;20403;-85
2022/06/04 08:27:02;;;;;;;8.77;5.63;;;14.10;99.90;;;;;;4985678;28;20452;-84
2022/06/04 08:29:34;;;;;;;8.57;5.78;;;14.20;99.90;;;;;;4970946;28;20797;-84
2022/06/04 08:32:09;;;;;;;8.40;5.57;;;14.20;99.90;;;;;;4970412;28;20840;-83
2022/06/04 08:34:36;;;;;;;8.07;6.18;;;14.40;99.90;;;;;;4971203;28;20460;-83
2022/06/04 08:37:06;;;;;;;6.88;5.03;;;14.40;99.90;;;;;;4967254;28;20413;-84
2022/06/04 08:39:34;;;;;;;9.25;5.28;;;14.40;99.90;;;;;;4960453;28;20391;-84
2022/06/04 08:42:05;;;;;;;8.98;5.47;;;14.50;99.90;;;;;;4971099;28;20395;-83
2022/06/04 08:44:46;;;;;;;8.97;5.73;;;14.70;99.90;;;;;;4970867;28;20406;-84
2022/06/04 08:47:22;;;;;;;6.72;4.90;;;14.60;99.90;;;;;;4971193;28;20429;-85
2022/06/04 08:50:07;;;;;;;16.92;6.28;;;14.60;99.90;;;;;;4971149;28;20490;-84
2022/06/04 08:52:58;;;;;;;7.23;4.60;;;14.70;99.90;;;;;;4968390;28;20407;-84
2022/06/04 08:59:21;;;;;;;7.38;4.65;;;14.90;99.90;;;;;;4967653;28;20391;-83
2022/06/04 09:02:13;;;;;;;6.50;4.72;;;15.10;99.90;;;;;;5040213;28;20403;-84
2022/06/04 09:05:06;;;;;;;7.10;5.13;;;15.10;99.90;;;;;;4969578;28;20421;-83
2022/06/04 09:07:43;;;;;;;7.40;5.03;;;15.00;99.90;;;;;;4969642;28;20413;-84
2022/06/04 09:10:23;;;;;;;8.10;5.05;;;15.20;99.90;;;;;;4957043;28;20392;-83
2022/06/04 09:13:01;;;;;;;8.02;4.70;;;15.40;99.90;;;;;;4969891;28;20464;-83
2022/06/04 09:15:36;;;;;;;6.53;4.85;;;15.40;99.90;;;;;;4970746;28;20401;-83
2022/06/04 09:18:36;;;;;;;6.78;4.72;;;15.20;99.90;;;;;;4970697;28;20749;-84
2022/06/04 09:21:09;;;;;;;8.30;5.20;;;15.30;99.90;;;;;;4970544;28;20741;-84
2022/06/04 09:23:43;;;;;;;6.75;4.82;;;15.50;99.90;;;;;;4970607;28;20406;-84
2022/06/04 09:26:14;;;;;;;6.10;4.25;;;15.50;99.90;;;;;;4970668;28;20397;-83
2022/06/04 09:28:44;;;;;;;6.38;4.50;;;15.50;99.90;;;;;;4970356;28;20391;-84
2022/06/04 09:31:27;;;;;;;7.93;5.00;;;15.40;99.90;;;;;;4985611;28;20398;-83
2022/06/04 09:34:04;;;;;;;6.85;4.85;;;15.40;99.90;;;;;;4970491;28;20402;-82
2022/06/04 09:36:40;;;;;;;7.90;4.57;;;15.40;99.90;;;;;;4985728;28;20406;-84
2022/06/04 09:39:21;;;;;;;8.32;5.22;;;15.40;99.90;;;;;;4956314;28;20399;-84
2022/06/04 09:41:55;;;;;;;6.07;4.32;;;15.30;99.90;;;;;;4970530;28;20464;-84
2022/06/04 09:44:25;;;;;;;8.43;4.90;;;15.30;99.90;;;;;;4985069;28;20421;-84
2022/06/04 09:46:58;;;;;;;7.25;4.97;;;15.40;99.90;;;;;;4984899;28;20415;-81
2022/06/04 09:49:35;;;;;;;7.05;5.10;;;15.40;99.90;;;;;;4970010;28;20403;-84
2022/06/04 09:52:36;;;;;;;7.70;4.53;;;15.60;99.90;;;;;;4970273;28;20453;-84
2022/06/04 09:55:16;;;;;;;8.77;4.90;;;15.70;99.90;;;;;;4967813;28;20401;-84
2022/06/04 09:57:57;;;;;;;6.25;4.85;;;15.70;99.90;;;;;;4970127;28;20394;-85
2022/06/04 10:00:32;;;;;;;5.60;4.50;;;15.80;99.90;;;;;;4970159;28;20422;-84
2022/06/04 10:03:17;;;;;;;7.50;5.03;;;15.70;99.90;;;;;;4983805;28;20494;-82
2022/06/04 10:06:24;;;;;;;6.77;5.10;;;15.80;99.90;;;;;;4960069;28;20399;-83
2022/06/04 10:11:51;;;;;;;7.43;4.93;;;15.80;99.90;;;;;;4970104;28;20412;-83
2022/06/04 10:14:37;;;;;;;5.97;4.55;;;15.90;99.90;;;;;;4970088;28;20401;-83
2022/06/04 10:17:31;;;;;;;6.05;4.47;;;16.00;99.90;;;;;;4954036;28;20430;-84
2022/06/04 10:19:59;;;;;;;6.25;4.88;;;16.00;99.90;;;;;;4968942;28;20394;-83
2022/06/04 10:22:26;;;;;;;6.18;4.97;;;16.00;99.90;;;;;;4969898;28;20773;-83
2022/06/04 10:25:04;;;;;;;7.38;5.00;;;16.00;99.90;;;;;;5052300;28;20415;-84
2022/06/04 10:28:26;;;;;;;9.52;4.93;;;15.90;99.90;;;;;;4960958;28;20401;-83
2022/06/04 10:31:20;;;;;;;6.88;5.30;;;16.00;99.90;;;;;;4992848;28;20434;-84
2022/06/04 10:33:54;;;;;;;6.05;4.88;;;16.10;99.90;;;;;;4980543;28;20399;-85
2022/06/04 10:36:55;;;;;;;6.25;4.53;;;16.20;99.90;;;;;;4970688;28;20404;-84
2022/06/04 10:39:53;;;;;;;6.07;4.60;;;16.30;99.90;;;;;;4959741;28;20444;-83
2022/06/04 10:42:53;;;;;;;7.40;4.67;;;16.20;99.90;;;;;;4973285;28;20524;-84
2022/06/04 10:45:34;;;;;;;6.20;4.70;;;16.30;99.90;;;;;;4992832;28;20466;-84
2022/06/04 10:48:21;;;;;;;8.77;4.90;;;16.20;99.90;;;;;;4973188;28;20696;-85
2022/06/04 10:51:28;;;;;;;7.15;4.47;;;16.10;99.90;;;;;;4972745;28;20490;-84
2022/06/04 10:54:14;;;;;;;6.65;4.80;;;16.10;99.90;;;;;;4972988;28;20407;-84
2022/06/04 10:57:05;;;;;;;6.07;4.78;;;16.20;99.90;;;;;;4971657;28;20448;-83
2022/06/04 10:59:48;;;;;;;5.43;3.88;;;16.30;99.90;;;;;;4987455;28;20395;-85
2022/06/04 11:02:22;;;;;;;6.82;4.40;;;16.40;99.90;;;;;;4972824;28;20391;-85
2022/06/04 11:05:02;;;;;;;6.72;4.13;;;16.40;99.90;;;;;;4971508;28;20436;-83
2022/06/04 11:08:12;;;;;;;6.40;4.27;;;16.30;99.90;;;;;;4971425;28;20885;-83
2022/06/04 11:10:57;;;;;;;4.80;3.80;;;16.30;99.90;;;;;;5014432;28;20402;-84
2022/06/04 11:13:33;;;;;;;6.43;4.30;;;16.30;99.90;;;;;;4975434;28;20460;-83
2022/06/04 11:16:15;;;;;;;4.83;3.87;;;16.40;99.90;;;;;;4970745;28;20958;-83
2022/06/04 11:18:52;;;;;;;6.15;4.00;;;16.40;99.90;;;;;;4955558;28;20458;-83
2022/06/04 11:21:43;;;;;;;4.95;3.88;;;16.40;99.90;;;;;;4987895;28;20398;-84
2022/06/04 11:24:35;;;;;;;9.90;5.72;;;16.30;99.90;;;;;;4987634;28;20410;-82
2022/06/04 11:27:31;;;;;;;10.15;6.70;;;16.20;99.90;;;;;;4982447;28;20396;-84
2022/06/04 11:30:01;;;;;;;5.70;3.97;;;16.40;99.90;;;;;;4964577;28;20456;-85
2022/06/04 11:32:54;;;;;;;5.40;3.80;;;16.40;99.90;;;;;;4972632;28;20812;-86
2022/06/04 11:35:51;;;;;;;6.97;4.30;;;16.70;99.90;;;;;;4970996;28;20873;-86
2022/06/04 11:38:24;;;;;;;4.38;3.92;;;17.10;99.90;;;;;;4971120;28;20411;-84
2022/06/04 11:41:11;;;;;;;8.75;4.63;;;17.30;99.90;;;;;;4971197;28;20434;-85
2022/06/04 11:44:12;;;;;;;6.28;4.03;;;17.50;99.90;;;;;;4971388;28;20778;-86
2022/06/04 11:47:21;;;;;;;5.72;4.15;;;17.50;99.90;;;;;;4970988;28;20424;-86
2022/06/04 11:50:14;;;;;;;6.32;4.30;;;17.30;99.90;;;;;;4955293;28;20494;-85
2022/06/04 11:53:23;;;;;;;6.00;4.68;;;17.70;99.90;;;;;;4972138;28;20831;-86
2022/06/04 11:56:34;;;;;;;6.05;4.15;;;17.80;99.90;;;;;;4972274;28;20409;-86
2022/06/04 11:59:32;;;;;;;5.40;4.10;;;17.90;99.90;;;;;;4972336;28;20418;-85
2022/06/04 12:02:26;;;;;;;5.28;4.13;;;17.80;99.90;;;;;;4987331;28;20423;-86
2022/06/04 12:05:05;;;;;;;7.32;4.65;;;17.50;99.90;;;;;;4971503;28;20846;-85
2022/06/04 12:07:42;;;;;;;5.82;4.40;;;17.20;99.90;;;;;;4986773;28;20395;-85
2022/06/04 12:10:47;;;;;;;4.57;3.92;;;17.10;99.90;;;;;;4971769;28;20694;-85
2022/06/04 12:13:37;;;;;;;7.18;4.65;;;16.90;99.90;;;;;;4986181;28;20450;-85
2022/06/04 12:16:26;;;;;;;4.95;4.07;;;16.80;99.90;;;;;;4971223;28;20395;-86
2022/06/04 12:25:09;;;;;;;5.30;4.15;;;17.50;99.90;;;;;;4970248;28;20746;-83
2022/06/04 12:28:00;;;;;;;5.00;4.18;;;17.80;99.90;;;;;;4970414;28;20402;-84
2022/06/04 12:30:33;;;;;;;6.38;4.15;;;18.10;99.90;;;;;;4968296;28;20391;-86
2022/06/04 12:33:08;;;;;;;5.63;4.05;;;18.30;99.90;;;;;;4970894;28;20395;-85
2022/06/04 12:35:36;;;;;;;4.82;4.00;;;18.10;99.90;;;;;;4970509;28;20414;-86
2022/06/04 12:38:12;;;;;;;6.07;4.40;;;17.90;99.90;;;;;;4970386;28;20523;-85
2022/06/04 12:40:42;;;;;;;5.60;4.10;;;17.90;99.90;;;;;;4970167;28;20406;-87
2022/06/04 12:43:18;;;;;;;8.25;4.47;;;17.90;99.90;;;;;;4970708;28;20390;-85
2022/06/04 12:45:52;;;;;;;4.88;3.90;;;17.60;99.90;;;;;;4970251;28;20406;-86
2022/06/04 12:48:33;;;;;;;6.30;4.20;;;17.50;99.90;;;;;;4969966;28;20509;-84
2022/06/04 12:51:18;;;;;;;4.95;4.20;;;17.70;99.90;;;;;;4951350;28;20408;-85
2022/06/04 12:53:58;;;;;;;6.03;4.03;;;17.80;99.90;;;;;;4961431;28;20437;-85
2022/06/04 12:56:32;;;;;;;4.70;4.07;;;18.00;99.90;;;;;;4970757;28;20475;-86
2022/06/04 12:59:04;;;;;;;5.88;4.00;;;18.30;99.90;;;;;;4951036;29;20388;-85
2022/06/04 13:01:34;;;;;;;5.53;3.75;;;18.50;99.90;;;;;;4959961;28;20474;-86
2022/06/04 13:04:20;;;;;;;5.18;3.63;;;18.20;99.90;;;;;;4971149;28;20418;-86
2022/06/04 13:07:00;;;;;;;6.57;3.78;;;17.90;99.90;;;;;;4970989;28;20391;-85
2022/06/04 13:09:39;;;;;;;5.30;3.70;;;17.80;99.90;;;;;;4969562;28;20419;-85
2022/06/04 13:12:17;;;;;;;6.65;3.70;;;17.90;99.90;;;;;;4969831;28;20477;-85
2022/06/04 13:15:08;;;;;;;4.97;3.40;;;18.30;99.90;;;;;;4969576;28;20404;-85
2022/06/04 13:17:47;;;;;;;5.22;3.90;;;18.40;99.90;;;;;;4972069;28;20395;-85
2022/06/04 13:20:33;;;;;;;4.22;3.67;;;18.70;99.90;;;;;;4969675;28;20448;-84
2022/06/04 13:23:38;;;;;;;4.30;3.75;;;18.70;99.90;;;;;;4970876;28;20399;-86
2022/06/04 13:26:44;;;;;;;6.60;4.03;;;18.50;99.90;;;;;;4990241;28;20421;-86
2022/06/04 13:29:32;;;;;;;5.07;3.63;;;18.40;99.90;;;;;;4969531;28;20402;-85
2022/06/04 13:32:11;;;;;;;6.57;3.70;;;18.00;99.90;;;;;;4970762;28;20395;-86
2022/06/04 13:34:40;;;;;;;7.68;3.95;;;17.90;99.90;;;;;;4970597;28;20442;-86
2022/06/04 13:37:35;;;;;;;4.90;3.60;;;18.20;99.90;;;;;;4969461;28;20453;-85
2022/06/04 13:40:11;;;;;;;4.63;3.90;;;18.10;99.90;;;;;;4969776;28;20889;-84
2022/06/04 13:42:42;;;;;;;5.18;3.50;;;18.10;99.90;;;;;;4970686;28;20418;-85
2022/06/04 13:45:09;;;;;;;4.50;3.83;;;18.30;99.90;;;;;;4969578;28;20437;-85